Time;durP1;ratioP1;P1;durP2;ratioP2;P2;SDS_P1;SDS_P2;PMS_P1;PMS_P2;Temp;Humidity;BMP_temperature;BMP_pressure;BME280_temperature;BME280_humidity;BME280_pressure;Samples;Min_cycle;Max_cycle;Signal;HPM_P1;HPM_P2
2022/05/11 00:00:35;;;;;;;9.38;8.38;;;18.50;71.00;;;;;;5019432;28;20037;-88
2022/05/11 00:03:01;;;;;;;11.70;8.52;;;18.50;71.20;;;;;;5009257;28;20040;-89
2022/05/11 00:05:27;;;;;;;10.35;9.20;;;18.40;71.40;;;;;;4999880;28;20028;-88
2022/05/11 00:07:52;;;;;;;10.75;8.63;;;18.40;71.60;;;;;;5014393;28;20026;-89
2022/05/11 00:10:18;;;;;;;10.25;9.07;;;18.40;71.80;;;;;;5019957;28;20129;-87
2022/05/11 00:12:46;;;;;;;11.13;9.45;;;18.40;72.00;;;;;;5015148;28;20064;-87
2022/05/11 00:15:15;;;;;;;12.98;9.52;;;18.40;72.00;;;;;;5001427;28;20136;-87
2022/05/11 00:17:40;;;;;;;13.93;9.48;;;18.30;72.10;;;;;;4998690;28;20060;-88
2022/05/11 00:20:07;;;;;;;11.48;9.57;;;18.30;72.20;;;;;;5028564;28;20056;-87
2022/05/11 00:22:34;;;;;;;14.93;10.25;;;18.20;72.30;;;;;;5016713;28;20057;-87
2022/05/11 00:25:00;;;;;;;13.27;10.30;;;18.20;72.60;;;;;;5017918;28;20052;-87
2022/05/11 00:27:25;;;;;;;15.75;10.50;;;18.10;72.60;;;;;;5019094;28;20018;-86
2022/05/11 00:29:51;;;;;;;13.77;10.40;;;18.10;72.80;;;;;;5011188;28;20124;-87
2022/05/11 00:32:17;;;;;;;12.63;11.10;;;18.00;72.90;;;;;;5029906;28;20091;-87
2022/05/11 00:34:42;;;;;;;12.68;10.85;;;18.00;73.10;;;;;;5028547;28;20415;-88
2022/05/11 00:37:08;;;;;;;14.68;11.98;;;17.90;73.30;;;;;;4996973;28;20029;-86
2022/05/11 00:39:35;;;;;;;13.88;11.70;;;17.80;73.50;;;;;;5018315;28;20036;-87
2022/05/11 00:42:05;;;;;;;13.93;11.95;;;17.70;73.70;;;;;;5021927;28;20348;-87
2022/05/11 00:44:31;;;;;;;15.10;12.55;;;17.70;74.10;;;;;;5014229;28;20472;-89
2022/05/11 00:47:01;;;;;;;15.95;13.52;;;17.70;74.20;;;;;;5018908;28;20025;-87
2022/05/11 00:49:38;;;;;;;16.13;12.55;;;17.60;74.50;;;;;;5027110;28;20032;-88
2022/05/11 00:52:16;;;;;;;14.20;12.70;;;17.60;74.80;;;;;;5016579;28;20396;-87
2022/05/11 00:54:51;;;;;;;15.68;12.65;;;17.50;74.90;;;;;;5019337;28;20029;-87
2022/05/11 00:57:21;;;;;;;20.38;13.35;;;17.60;75.20;;;;;;5005229;28;20026;-87
2022/05/11 00:59:50;;;;;;;17.80;13.27;;;17.60;75.10;;;;;;5000143;28;20030;-87
2022/05/11 01:02:17;;;;;;;16.88;13.25;;;17.60;75.20;;;;;;5007249;28;20010;-89
2022/05/11 01:04:44;;;;;;;19.80;13.45;;;17.70;75.20;;;;;;5015264;28;20026;-88
2022/05/11 01:07:12;;;;;;;17.38;13.48;;;17.70;75.30;;;;;;5019463;28;20391;-87
2022/05/11 01:09:38;;;;;;;16.20;13.02;;;17.70;75.40;;;;;;5017446;28;20025;-88
2022/05/11 01:12:13;;;;;;;16.38;12.70;;;17.70;75.40;;;;;;5034557;28;20105;-89
2022/05/11 01:14:42;;;;;;;14.38;12.85;;;17.70;75.50;;;;;;5019305;28;20025;-88
2022/05/11 01:17:09;;;;;;;14.38;12.88;;;17.70;75.50;;;;;;5015231;28;20209;-88
2022/05/11 01:19:40;;;;;;;15.25;12.45;;;17.70;75.50;;;;;;5005135;28;20029;-85
2022/05/11 01:22:20;;;;;;;15.00;12.95;;;17.70;75.80;;;;;;5018367;28;20080;-87
2022/05/11 01:24:47;;;;;;;14.57;11.18;;;17.70;76.00;;;;;;5016999;28;20039;-87
2022/05/11 01:27:35;;;;;;;15.57;12.43;;;17.70;76.00;;;;;;5018196;28;20025;-86
2022/05/11 01:30:18;;;;;;;13.82;11.80;;;17.70;76.20;;;;;;5008625;28;20494;-88
2022/05/11 01:32:47;;;;;;;14.65;12.18;;;17.70;76.10;;;;;;5018503;28;20567;-88
2022/05/11 01:35:46;;;;;;;15.63;12.27;;;17.70;76.20;;;;;;5020576;28;20591;-87
2022/05/11 01:38:18;;;;;;;15.70;12.15;;;17.70;76.30;;;;;;5010844;28;20082;-87
2022/05/11 01:40:43;;;;;;;13.55;11.60;;;17.70;76.30;;;;;;5015608;28;20511;-86
2022/05/11 01:43:19;;;;;;;14.80;11.85;;;17.70;76.30;;;;;;5001814;28;20018;-88
2022/05/11 01:45:45;;;;;;;15.00;11.77;;;17.70;76.70;;;;;;5015346;28;20119;-89
2022/05/11 01:48:10;;;;;;;13.85;11.57;;;17.70;76.70;;;;;;5015343;28;20026;-88
2022/05/11 01:50:36;;;;;;;12.48;11.15;;;17.70;76.80;;;;;;4999662;28;20476;-89
2022/05/11 01:53:02;;;;;;;13.57;11.27;;;17.80;76.90;;;;;;5002272;28;20033;-89
2022/05/11 01:55:28;;;;;;;14.70;11.80;;;17.70;76.70;;;;;;5002611;28;20053;-87
2022/05/11 01:57:54;;;;;;;13.77;11.63;;;17.60;76.90;;;;;;5007164;28;20048;-87
2022/05/11 02:00:19;;;;;;;14.00;11.57;;;17.60;77.10;;;;;;5010579;28;20052;-89
2022/05/11 02:02:45;;;;;;;15.00;12.18;;;17.60;77.30;;;;;;5011485;28;20024;-87
2022/05/11 02:07:55;;;;;;;17.67;12.63;;;17.50;77.30;;;;;;5034442;28;20044;-87
2022/05/11 02:10:23;;;;;;;17.88;12.75;;;17.40;77.30;;;;;;5037522;28;20041;-87
2022/05/11 02:12:50;;;;;;;15.63;12.82;;;17.30;77.70;;;;;;5003309;28;20045;-87
2022/05/11 02:15:17;;;;;;;15.27;12.20;;;17.10;77.80;;;;;;5019987;28;20032;-87
2022/05/11 02:17:43;;;;;;;17.55;12.85;;;17.10;78.30;;;;;;5016563;28;20025;-87
2022/05/11 02:20:11;;;;;;;16.80;12.45;;;17.10;78.50;;;;;;5021893;28;20521;-87
2022/05/11 02:22:37;;;;;;;20.00;13.20;;;17.00;78.80;;;;;;5010386;28;20460;-87
2022/05/11 02:25:04;;;;;;;15.98;12.70;;;16.90;78.80;;;;;;5004648;28;20061;-86
2022/05/11 02:27:32;;;;;;;20.48;13.20;;;16.90;79.00;;;;;;5002266;28;20064;-88
2022/05/11 02:29:58;;;;;;;15.43;12.68;;;16.80;79.10;;;;;;5014523;28;20113;-87
2022/05/11 02:32:24;;;;;;;16.95;13.00;;;16.70;79.30;;;;;;5028443;28;20084;-88
2022/05/11 02:37:34;;;;;;;14.38;12.15;;;16.60;80.00;;;;;;5029921;28;20071;-88
2022/05/11 02:40:00;;;;;;;17.65;12.93;;;16.50;80.10;;;;;;5025288;28;20025;-88
2022/05/11 02:42:25;;;;;;;16.17;13.73;;;16.40;80.40;;;;;;5015505;28;20029;-88
2022/05/11 02:44:52;;;;;;;15.93;13.52;;;16.40;80.70;;;;;;5007961;28;20097;-87
2022/05/11 02:47:18;;;;;;;17.52;14.02;;;16.40;80.90;;;;;;5032367;28;20052;-88
2022/05/11 02:49:44;;;;;;;19.20;13.52;;;16.40;81.20;;;;;;5007805;28;20030;-87
2022/05/11 02:52:10;;;;;;;16.75;13.60;;;16.40;81.50;;;;;;5009462;28;20029;-89
2022/05/11 02:54:36;;;;;;;15.63;13.00;;;16.40;81.60;;;;;;5019290;28;20029;-87
2022/05/11 02:57:03;;;;;;;18.17;13.43;;;16.50;81.60;;;;;;5026063;28;20733;-87
2022/05/11 02:59:29;;;;;;;16.13;12.73;;;16.50;81.70;;;;;;5020900;28;20060;-89
2022/05/11 03:01:56;;;;;;;15.40;12.95;;;16.50;81.70;;;;;;5005920;28;20113;-88
2022/05/11 03:04:22;;;;;;;12.52;11.23;;;16.50;81.90;;;;;;5018631;28;20032;-88
2022/05/11 03:06:48;;;;;;;15.55;11.80;;;16.60;81.90;;;;;;5016293;28;20128;-87
2022/05/11 03:09:17;;;;;;;15.57;11.32;;;16.60;82.00;;;;;;5010950;28;20403;-87
2022/05/11 03:11:44;;;;;;;12.90;11.48;;;16.60;82.20;;;;;;5001974;28;20049;-87
2022/05/11 03:14:11;;;;;;;15.88;10.63;;;16.70;82.10;;;;;;5017918;28;20059;-87
2022/05/11 03:16:37;;;;;;;13.63;11.20;;;16.70;82.10;;;;;;5015738;28;20029;-87
2022/05/11 03:19:04;;;;;;;13.98;11.18;;;16.70;82.10;;;;;;5001364;28;20086;-88
2022/05/11 03:21:29;;;;;;;17.20;11.25;;;16.70;82.10;;;;;;5013647;28;20331;-88
2022/05/11 03:23:55;;;;;;;13.90;11.75;;;16.70;82.00;;;;;;5016177;28;20104;-89
2022/05/11 03:26:21;;;;;;;13.75;10.55;;;16.70;81.90;;;;;;5028900;28;20018;-87
2022/05/11 03:28:47;;;;;;;14.07;11.50;;;16.70;82.00;;;;;;5026860;28;20029;-87
2022/05/11 03:31:14;;;;;;;15.18;11.45;;;16.70;82.10;;;;;;5032020;28;20096;-88
2022/05/11 03:36:24;;;;;;;14.30;10.27;;;16.60;82.30;;;;;;5022309;28;20087;-86
2022/05/11 03:38:50;;;;;;;12.95;11.55;;;16.60;82.20;;;;;;5018835;28;20022;-89
2022/05/11 03:41:16;;;;;;;11.63;10.43;;;16.60;82.30;;;;;;5003970;28;20018;-87
2022/05/11 03:43:42;;;;;;;14.02;11.18;;;16.50;82.30;;;;;;5011131;28;20026;-87
2022/05/11 03:46:08;;;;;;;14.20;11.02;;;16.50;82.50;;;;;;5004970;28;20473;-88
2022/05/11 03:48:34;;;;;;;15.18;10.90;;;16.50;82.60;;;;;;5022723;28;20045;-88
2022/05/11 03:51:00;;;;;;;15.10;10.95;;;16.40;82.70;;;;;;5009544;28;20030;-88
2022/05/11 03:53:26;;;;;;;12.85;10.38;;;16.40;82.70;;;;;;4999392;28;20027;-88
2022/05/11 03:55:53;;;;;;;12.10;10.05;;;16.40;82.70;;;;;;5004563;28;20402;-89
2022/05/11 04:00:46;;;;;;;11.80;9.57;;;16.40;82.80;;;;;;5003565;28;20073;-87
2022/05/11 04:03:12;;;;;;;15.00;10.65;;;16.40;82.80;;;;;;4986855;28;20050;-87
2022/05/11 04:05:38;;;;;;;12.73;10.68;;;16.40;82.80;;;;;;4991865;28;20034;-88
2022/05/11 04:08:04;;;;;;;14.00;10.93;;;16.40;82.70;;;;;;4970862;28;20098;-87
2022/05/11 04:10:29;;;;;;;13.30;10.65;;;16.40;82.80;;;;;;4985831;28;20027;-87
2022/05/11 04:12:55;;;;;;;13.88;10.43;;;16.40;82.80;;;;;;4982816;28;20019;-87
2022/05/11 04:15:21;;;;;;;15.75;10.30;;;16.40;82.80;;;;;;4990326;28;20030;-88
2022/05/11 04:17:46;;;;;;;15.15;11.25;;;16.40;82.90;;;;;;4969902;28;20027;-88
2022/05/11 04:20:15;;;;;;;13.38;10.55;;;16.40;82.90;;;;;;4958547;28;20113;-87
2022/05/11 04:22:40;;;;;;;14.60;10.35;;;16.40;83.00;;;;;;4965219;28;20030;-88
2022/05/11 04:25:07;;;;;;;13.23;10.60;;;16.40;83.50;;;;;;4973457;28;20034;-86
2022/05/11 04:27:33;;;;;;;16.15;11.73;;;16.40;83.10;;;;;;4988474;28;20019;-87
2022/05/11 04:30:00;;;;;;;12.65;10.80;;;16.40;83.20;;;;;;4967299;28;20046;-87
2022/05/11 04:32:26;;;;;;;13.77;11.27;;;16.40;83.30;;;;;;4977459;28;20031;-87
2022/05/11 04:34:52;;;;;;;13.50;10.95;;;16.40;83.40;;;;;;4973608;28;20049;-87
2022/05/11 04:37:18;;;;;;;15.00;11.70;;;16.40;83.40;;;;;;4976627;28;20066;-87
2022/05/11 04:39:43;;;;;;;15.10;10.95;;;16.40;83.60;;;;;;4974585;28;20111;-87
2022/05/11 04:42:11;;;;;;;14.90;12.13;;;16.30;83.60;;;;;;4992543;28;20105;-88
2022/05/11 04:44:36;;;;;;;13.77;11.35;;;16.40;83.90;;;;;;4973590;28;20027;-88
2022/05/11 04:47:13;;;;;;;14.75;11.02;;;16.40;83.90;;;;;;4995959;28;20066;-88
2022/05/11 04:49:40;;;;;;;13.82;11.15;;;16.40;84.10;;;;;;4983772;28;20027;-88
2022/05/11 04:52:15;;;;;;;13.25;10.77;;;16.40;83.90;;;;;;4993124;28;20023;-88
2022/05/11 04:54:43;;;;;;;13.10;10.50;;;16.50;84.20;;;;;;4986328;28;20461;-88
2022/05/11 04:57:09;;;;;;;14.18;10.88;;;16.50;84.10;;;;;;4983637;28;20089;-88
2022/05/11 04:59:35;;;;;;;10.85;9.68;;;16.50;84.00;;;;;;4964656;28;20406;-88
2022/05/11 05:02:03;;;;;;;12.80;9.88;;;16.50;84.10;;;;;;4962365;28;20113;-88
2022/05/11 05:04:31;;;;;;;11.55;9.80;;;16.60;84.10;;;;;;4967346;28;20022;-88
2022/05/11 05:06:57;;;;;;;12.10;9.32;;;16.60;84.20;;;;;;4965640;28;20026;-88
2022/05/11 05:09:23;;;;;;;11.20;9.52;;;16.60;84.10;;;;;;4984379;28;20023;-88
2022/05/11 05:11:50;;;;;;;12.82;9.35;;;16.70;84.10;;;;;;4989417;28;20061;-88
2022/05/11 05:14:16;;;;;;;12.13;9.43;;;16.70;84.00;;;;;;4991535;28;20038;-87
2022/05/11 05:16:42;;;;;;;10.23;9.13;;;16.70;83.90;;;;;;4990045;28;20102;-87
2022/05/11 05:19:09;;;;;;;12.20;8.93;;;16.70;84.00;;;;;;4989852;28;20031;-87
2022/05/11 05:21:35;;;;;;;10.05;8.93;;;16.70;84.00;;;;;;4970105;28;20475;-86
2022/05/11 05:24:01;;;;;;;9.60;8.60;;;16.70;84.00;;;;;;4983543;28;20029;-85
2022/05/11 05:26:27;;;;;;;10.23;8.40;;;16.80;84.20;;;;;;4967411;28;20106;-86
2022/05/11 05:31:37;;;;;;;9.85;8.43;;;16.80;84.00;;;;;;5018874;28;20042;-86
2022/05/11 05:34:03;;;;;;;9.20;8.25;;;16.90;84.10;;;;;;4998842;28;20078;-86
2022/05/11 05:36:31;;;;;;;10.43;8.30;;;16.90;84.20;;;;;;4983537;28;20495;-85
2022/05/11 05:39:00;;;;;;;9.15;8.25;;;16.90;84.30;;;;;;4971645;28;20097;-86
2022/05/11 05:41:26;;;;;;;9.63;8.40;;;16.90;84.40;;;;;;4981167;28;20088;-86
2022/05/11 05:43:53;;;;;;;8.52;7.50;;;17.00;84.50;;;;;;4974445;28;20065;-85
2022/05/11 05:46:19;;;;;;;10.25;7.53;;;17.00;84.50;;;;;;4973924;28;20501;-87
2022/05/11 05:48:45;;;;;;;9.48;8.23;;;17.10;84.70;;;;;;4989947;28;20019;-85
2022/05/11 05:51:13;;;;;;;9.82;8.07;;;17.10;84.70;;;;;;4972373;28;20521;-86
2022/05/11 05:53:40;;;;;;;10.88;8.48;;;17.20;84.70;;;;;;4990805;28;21887;-86
2022/05/11 05:56:07;;;;;;;9.30;7.40;;;17.30;84.80;;;;;;4971694;28;20034;-86
2022/05/11 05:58:33;;;;;;;14.02;9.63;;;17.30;84.80;;;;;;4983539;28;20407;-85
2022/05/11 06:00:59;;;;;;;10.27;7.07;;;17.40;84.80;;;;;;4982109;28;20066;-86
2022/05/11 06:03:27;;;;;;;10.63;7.20;;;17.50;84.90;;;;;;4969364;28;20046;-86
2022/05/11 06:05:53;;;;;;;7.60;6.65;;;17.60;84.90;;;;;;4957927;28;20027;-86
2022/05/11 06:08:20;;;;;;;12.18;8.00;;;17.70;84.90;;;;;;4979007;28;20019;-85
2022/05/11 06:10:46;;;;;;;9.23;6.13;;;17.80;84.90;;;;;;4965188;28;20069;-84
2022/05/11 06:13:13;;;;;;;8.65;5.65;;;17.90;84.80;;;;;;4965773;28;20065;-85
2022/05/11 06:15:39;;;;;;;5.90;5.30;;;18.00;84.60;;;;;;4978000;28;20030;-86
2022/05/11 06:18:09;;;;;;;9.45;5.50;;;18.00;84.60;;;;;;4973773;28;20487;-86
2022/05/11 06:20:36;;;;;;;6.18;5.55;;;18.20;84.70;;;;;;4977641;28;20030;-86
2022/05/11 06:23:03;;;;;;;7.63;5.28;;;18.30;84.30;;;;;;4973786;28;20030;-86
2022/05/11 06:25:33;;;;;;;10.80;5.38;;;18.40;84.10;;;;;;4956642;28;20026;-86
2022/05/11 06:27:59;;;;;;;6.10;5.07;;;18.50;83.80;;;;;;4981113;28;20105;-85
2022/05/11 06:30:27;;;;;;;7.60;5.40;;;18.60;83.40;;;;;;4984921;28;20054;-86
2022/05/11 06:32:53;;;;;;;6.85;5.47;;;18.70;83.50;;;;;;4982050;28;20072;-87
2022/05/11 06:35:19;;;;;;;6.47;5.03;;;18.80;83.10;;;;;;4968041;28;20105;-86
2022/05/11 06:37:44;;;;;;;8.82;5.80;;;18.90;82.80;;;;;;4962662;28;20495;-86
2022/05/11 06:40:13;;;;;;;7.38;5.63;;;19.00;82.80;;;;;;4979387;28;20546;-86
2022/05/11 06:42:39;;;;;;;5.40;4.90;;;19.00;82.50;;;;;;4970705;28;20418;-86
2022/05/11 06:45:06;;;;;;;6.53;5.22;;;19.20;82.30;;;;;;4975164;28;20030;-87
2022/05/11 06:47:33;;;;;;;5.75;5.15;;;19.30;82.20;;;;;;4975732;28;20391;-87
2022/05/11 06:49:58;;;;;;;8.93;5.15;;;19.40;82.10;;;;;;4974499;28;20027;-87
2022/05/11 06:52:24;;;;;;;5.90;4.95;;;19.50;82.40;;;;;;4971007;28;20038;-85
2022/05/11 07:00:19;;;;;;;8.60;5.10;;;19.80;81.30;;;;;;4994505;28;20045;-90
2022/05/11 07:02:45;;;;;;;6.03;4.50;;;20.00;81.00;;;;;;4978102;28;20022;-91
2022/05/11 07:05:11;;;;;;;5.15;4.65;;;20.20;80.50;;;;;;4970640;28;20490;-90
2022/05/11 07:07:36;;;;;;;4.75;4.30;;;20.40;80.10;;;;;;4969464;28;20019;-89
2022/05/11 07:10:03;;;;;;;6.18;4.80;;;20.60;79.90;;;;;;4978172;28;20049;-90
2022/05/11 07:12:35;;;;;;;6.13;3.97;;;20.80;79.30;;;;;;4976536;28;20062;-89
2022/05/11 07:15:02;;;;;;;5.38;3.92;;;21.10;78.80;;;;;;4989302;28;20424;-90
2022/05/11 07:17:42;;;;;;;4.68;4.28;;;21.30;78.10;;;;;;4958428;28;20035;-90
2022/05/11 07:20:18;;;;;;;6.10;4.10;;;21.60;77.70;;;;;;4960878;28;20423;-89
2022/05/11 07:22:44;;;;;;;7.15;3.83;;;21.90;77.10;;;;;;4976546;28;20022;-90
2022/05/11 07:25:12;;;;;;;4.97;3.67;;;22.30;76.50;;;;;;4973049;28;20014;-90
2022/05/11 07:27:38;;;;;;;10.48;3.70;;;22.60;75.60;;;;;;4977187;28;20023;-90
2022/05/11 07:30:06;;;;;;;5.93;3.30;;;22.80;74.80;;;;;;4975710;28;20113;-89
2022/05/11 07:32:32;;;;;;;4.78;2.72;;;23.00;74.20;;;;;;4985276;28;20069;-90
2022/05/11 07:34:58;;;;;;;4.60;2.90;;;23.30;73.70;;;;;;4984346;28;20476;-89
2022/05/11 07:37:23;;;;;;;3.13;2.83;;;23.40;72.90;;;;;;4976229;28;20479;-89
2022/05/11 07:39:49;;;;;;;3.67;2.72;;;23.60;72.40;;;;;;4976324;28;20469;-89
2022/05/11 07:42:16;;;;;;;2.97;2.67;;;23.80;71.50;;;;;;4966812;28;20023;-90
2022/05/11 07:44:42;;;;;;;3.75;2.78;;;24.00;70.60;;;;;;4956730;28;20483;-91
2022/05/11 07:47:10;;;;;;;6.55;2.70;;;24.20;70.10;;;;;;4974648;28;20029;-90
2022/05/11 07:49:36;;;;;;;2.30;2.20;;;24.40;69.80;;;;;;4974065;28;20395;-89
2022/05/11 07:52:02;;;;;;;2.80;2.60;;;24.60;69.30;;;;;;4974732;28;20503;-90
2022/05/11 07:54:29;;;;;;;2.60;2.40;;;24.80;67.90;;;;;;4962955;28;20027;-90
2022/05/11 07:59:57;;;;;;;2.85;2.65;;;25.00;66.70;;;;;;4994297;28;20470;-90
2022/05/11 08:02:33;;;;;;;2.95;2.75;;;25.10;66.70;;;;;;4976382;28;20021;-88
2022/05/11 08:05:02;;;;;;;3.10;2.55;;;25.60;66.00;;;;;;4963509;28;20038;-90
2022/05/11 08:07:35;;;;;;;3.10;2.80;;;25.80;64.50;;;;;;4973280;28;20106;-90
2022/05/11 08:10:01;;;;;;;3.63;2.47;;;25.80;63.90;;;;;;4975848;28;20058;-90
2022/05/11 08:12:27;;;;;;;5.65;2.65;;;25.90;63.50;;;;;;4975497;28;20022;-90
2022/05/11 08:14:53;;;;;;;4.65;2.35;;;26.10;63.20;;;;;;4971420;28;20109;-90
2022/05/11 08:17:28;;;;;;;3.75;2.63;;;26.20;63.00;;;;;;4969432;28;20038;-90
2022/05/11 08:19:54;;;;;;;2.50;2.30;;;26.30;62.00;;;;;;4977612;28;20092;-89
2022/05/11 08:22:20;;;;;;;5.63;2.30;;;26.50;61.70;;;;;;4970013;28;20088;-90
2022/05/11 08:24:46;;;;;;;2.72;2.30;;;26.70;61.00;;;;;;4966810;28;20026;-89
2022/05/11 08:27:16;;;;;;;5.57;2.38;;;26.60;59.90;;;;;;4967876;28;20022;-90
2022/05/11 08:35:09;;;;;;;3.80;2.22;;;26.80;59.50;;;;;;4986763;28;20135;-90
2022/05/11 08:37:35;;;;;;;2.42;2.22;;;26.90;58.90;;;;;;4966381;28;20038;-89
2022/05/11 08:40:00;;;;;;;2.30;2.05;;;26.90;58.10;;;;;;4975502;28;20031;-90
2022/05/11 08:42:31;;;;;;;2.85;2.00;;;26.90;58.20;;;;;;4975594;28;20081;-88
2022/05/11 08:44:57;;;;;;;3.22;2.10;;;27.10;57.90;;;;;;4967249;28;20023;-89
2022/05/11 08:47:47;;;;;;;2.22;2.03;;;27.20;57.10;;;;;;4981030;28;20093;-90
2022/05/11 08:50:20;;;;;;;2.13;1.90;;;27.40;56.80;;;;;;4968690;28;20062;-90
2022/05/11 08:52:50;;;;;;;3.30;2.13;;;27.50;56.70;;;;;;4975176;28;20027;-90
2022/05/11 08:55:34;;;;;;;3.30;1.90;;;27.80;56.70;;;;;;4983939;28;20023;-90
2022/05/11 08:58:06;;;;;;;3.92;2.22;;;28.20;55.80;;;;;;5008368;28;20038;-88
2022/05/11 09:00:34;;;;;;;1.90;1.80;;;28.20;54.20;;;;;;5015026;28;20050;-88
2022/05/11 09:03:13;;;;;;;2.97;1.80;;;28.30;54.60;;;;;;4995609;28;20053;-90
2022/05/11 09:05:38;;;;;;;6.18;2.20;;;28.40;55.60;;;;;;4966166;28;20061;-89
2022/05/11 09:08:06;;;;;;;3.05;1.73;;;28.70;54.10;;;;;;4964189;28;20479;-89
2022/05/11 09:10:38;;;;;;;3.53;2.20;;;28.80;54.10;;;;;;4978486;28;20199;-89
2022/05/11 09:13:09;;;;;;;;;;;29.10;53.70;;;;;;4960814;28;20023;-90
2022/05/11 09:15:49;;;;;;;1.98;1.75;;;29.60;55.30;;;;;;4973204;28;19909;-89
2022/05/11 09:18:15;;;;;;;6.65;2.30;;;30.10;53.40;;;;;;4972106;28;20034;-89
2022/05/11 09:20:52;;;;;;;1.92;1.83;;;30.50;51.70;;;;;;4963115;28;20030;-90
2022/05/11 09:23:36;;;;;;;3.25;1.90;;;31.20;51.00;;;;;;4986872;28;20019;-90
2022/05/11 09:26:08;;;;;;;1.95;1.70;;;31.70;49.60;;;;;;4989389;28;20034;-89
2022/05/11 09:28:40;;;;;;;1.95;1.60;;;32.10;47.20;;;;;;4990151;28;20015;-89
2022/05/11 09:31:12;;;;;;;;;;;32.40;46.10;;;;;;4968055;28;20102;-90
2022/05/11 09:33:40;;;;;;;3.45;1.63;;;33.00;47.50;;;;;;4970928;28;20348;-90
2022/05/11 09:36:08;;;;;;;1.52;1.42;;;33.40;45.20;;;;;;4966053;28;20065;-89
2022/05/11 09:38:40;;;;;;;2.22;1.90;;;33.90;44.70;;;;;;4972620;28;20035;-90
2022/05/11 09:41:22;;;;;;;2.03;1.50;;;34.40;43.70;;;;;;4988037;28;20062;-90
2022/05/11 09:43:55;;;;;;;5.47;1.60;;;34.80;42.50;;;;;;4968370;28;20023;-90
2022/05/11 09:46:26;;;;;;;2.95;1.60;;;35.10;41.80;;;;;;4979579;28;20030;-90
2022/05/11 09:49:01;;;;;;;;;;;35.40;41.30;;;;;;4970005;28;20018;-90
2022/05/11 09:51:31;;;;;;;3.30;1.70;;;35.90;43.00;;;;;;4977296;28;19973;-89
2022/05/11 09:54:33;;;;;;;2.08;1.58;;;36.40;41.20;;;;;;4998797;28;20011;-88
2022/05/11 09:57:04;;;;;;;1.80;1.70;;;36.70;41.20;;;;;;4998831;28;20029;-87
2022/05/11 09:59:37;;;;;;;3.75;1.90;;;37.60;41.30;;;;;;5005385;23;20046;-86
2022/05/11 10:02:12;;;;;;;4.70;1.90;;;37.50;40.30;;;;;;4989747;28;20030;-87
2022/05/11 10:04:47;;;;;;;1.98;1.75;;;36.20;41.00;;;;;;4993895;28;20026;-86
2022/05/11 10:07:18;;;;;;;2.88;1.73;;;36.60;39.60;;;;;;4996014;28;20025;-85
2022/05/11 10:09:55;;;;;;;2.75;1.60;;;37.10;39.20;;;;;;5013180;28;20048;-85
2022/05/11 10:12:27;;;;;;;1.70;1.60;;;37.50;38.70;;;;;;4990198;28;20057;-86
2022/05/11 10:23:44;;;;;;;2.08;1.60;;;38.50;38.00;;;;;;5007925;28;20041;-86
2022/05/11 10:26:19;;;;;;;4.40;1.87;;;38.30;37.90;;;;;;4986515;28;20402;-86
2022/05/11 10:28:56;;;;;;;6.00;1.88;;;36.90;38.10;;;;;;4993996;28;20058;-86
2022/05/11 10:32:08;;;;;;;2.33;1.95;;;36.60;38.60;;;;;;5001711;28;20022;-87
2022/05/11 10:35:00;;;;;;;1.75;1.65;;;36.70;38.80;;;;;;4912160;29;20042;-87
2022/05/11 10:37:37;;;;;;;2.05;1.80;;;35.30;39.30;;;;;;4927146;29;20044;-87
2022/05/11 10:40:25;;;;;;;3.38;2.00;;;35.30;40.00;;;;;;4995896;28;20681;-87
2022/05/11 10:43:34;;;;;;;1.70;1.60;;;35.30;40.30;;;;;;4975143;28;20030;-86
2022/05/11 10:46:13;;;;;;;2.35;1.83;;;35.00;40.50;;;;;;5012079;28;20026;-87
2022/05/11 10:49:00;;;;;;;5.82;1.65;;;34.50;40.30;;;;;;4993888;28;20029;-86
2022/05/11 10:51:35;;;;;;;5.15;1.70;;;33.70;40.60;;;;;;4993030;28;20061;-86
2022/05/11 10:54:28;;;;;;;3.63;1.60;;;33.20;41.00;;;;;;4980226;28;20462;-86
2022/05/11 10:57:06;;;;;;;1.95;1.70;;;32.70;41.20;;;;;;5003547;28;20049;-86
2022/05/11 10:59:56;;;;;;;3.70;1.95;;;32.40;42.00;;;;;;4988656;28;20653;-87
2022/05/11 11:02:46;;;;;;;2.88;1.90;;;32.30;42.40;;;;;;5005993;28;20022;-85
2022/05/11 11:05:21;;;;;;;4.78;1.83;;;32.00;42.10;;;;;;5008934;28;20026;-86
2022/05/11 11:08:14;;;;;;;2.47;1.65;;;31.70;42.50;;;;;;5012348;28;20026;-87
2022/05/11 11:10:48;;;;;;;3.83;2.00;;;31.50;42.50;;;;;;4975668;28;20038;-87
2022/05/11 11:13:49;;;;;;;2.28;1.80;;;31.20;42.50;;;;;;4975613;28;20026;-86
2022/05/11 11:16:15;;;;;;;1.73;1.63;;;31.00;43.10;;;;;;4991712;28;20042;-86
2022/05/11 11:18:49;;;;;;;5.30;1.88;;;30.70;43.30;;;;;;4992716;28;20093;-87
2022/05/11 11:21:16;;;;;;;2.42;1.85;;;30.50;43.60;;;;;;5007488;28;20022;-86
2022/05/11 11:23:47;;;;;;;2.65;2.00;;;30.60;44.10;;;;;;4995943;28;20102;-87
2022/05/11 11:26:49;;;;;;;4.35;1.95;;;30.60;44.10;;;;;;5008989;28;20071;-87
2022/05/11 11:29:18;;;;;;;2.60;2.00;;;30.70;44.40;;;;;;4992512;28;20117;-87
2022/05/11 11:32:06;;;;;;;2.95;2.17;;;30.70;44.50;;;;;;4986849;28;20027;-86
2022/05/11 11:34:32;;;;;;;6.22;2.20;;;30.70;44.80;;;;;;4987534;28;20088;-87
2022/05/11 11:37:29;;;;;;;3.40;2.47;;;30.60;44.50;;;;;;4984882;28;20033;-86
2022/05/11 11:39:57;;;;;;;2.35;2.22;;;30.40;44.70;;;;;;5003455;28;20088;-87
2022/05/11 11:42:32;;;;;;;5.93;2.63;;;30.20;44.60;;;;;;4992913;28;20028;-87
2022/05/11 11:44:57;;;;;;;2.55;2.28;;;30.10;45.20;;;;;;4994603;28;20121;-86
2022/05/11 11:47:26;;;;;;;3.22;2.50;;;30.00;44.90;;;;;;4993388;28;20051;-86
2022/05/11 11:49:57;;;;;;;2.90;2.50;;;29.90;45.00;;;;;;5008589;28;20049;-87
2022/05/11 11:52:44;;;;;;;5.03;2.70;;;29.80;45.70;;;;;;4996557;28;20025;-86
2022/05/11 11:55:27;;;;;;;3.63;2.60;;;29.80;45.70;;;;;;4994895;28;20026;-86
2022/05/11 11:58:11;;;;;;;3.25;2.60;;;29.80;46.40;;;;;;4993462;28;20026;-86
2022/05/11 12:00:46;;;;;;;3.83;2.55;;;29.90;45.90;;;;;;4988221;28;20022;-86
2022/05/11 12:03:17;;;;;;;6.93;2.75;;;30.00;45.80;;;;;;4986733;28;20029;-86
2022/05/11 12:05:47;;;;;;;5.65;2.45;;;30.00;45.60;;;;;;4979990;28;20069;-86
2022/05/11 12:16:59;;;;;;;4.70;2.80;;;29.80;45.20;;;;;;5001531;28;20060;-88
2022/05/11 12:19:30;;;;;;;4.45;2.80;;;29.70;45.40;;;;;;4991546;28;20029;-89
2022/05/11 12:22:22;;;;;;;2.53;2.33;;;29.50;45.70;;;;;;4994786;28;20026;-89
2022/05/11 12:25:19;;;;;;;2.97;2.33;;;29.40;45.80;;;;;;4977760;28;20496;-87
2022/05/11 12:27:44;;;;;;;4.85;3.10;;;29.20;45.90;;;;;;4992879;28;20092;-89
2022/05/11 12:30:23;;;;;;;4.82;2.92;;;29.40;46.80;;;;;;4983093;28;20026;-89
2022/05/11 12:32:59;;;;;;;6.30;2.10;;;29.10;46.40;;;;;;5007256;28;20117;-87
2022/05/11 12:35:30;;;;;;;2.58;2.30;;;29.10;46.40;;;;;;4982687;28;20085;-87
2022/05/11 12:38:31;;;;;;;4.25;2.20;;;29.20;46.70;;;;;;4989976;28;20113;-87
2022/05/11 12:40:57;;;;;;;5.30;2.30;;;29.30;47.30;;;;;;5002814;28;20040;-86
2022/05/11 12:43:28;;;;;;;2.95;2.28;;;29.40;47.50;;;;;;4992684;28;20141;-88
2022/05/11 12:46:17;;;;;;;5.28;2.08;;;29.50;47.30;;;;;;4990311;28;20030;-88
2022/05/11 12:48:53;;;;;;;2.80;2.33;;;29.50;46.90;;;;;;4995844;28;20390;-87
2022/05/11 12:51:24;;;;;;;3.72;2.08;;;29.50;47.00;;;;;;4997217;28;20486;-87
2022/05/11 12:53:58;;;;;;;3.75;2.30;;;29.50;46.90;;;;;;4989683;28;20022;-85
2022/05/11 12:56:31;;;;;;;3.55;2.40;;;29.50;46.50;;;;;;4991700;28;20077;-86
2022/05/11 12:58:59;;;;;;;4.93;2.30;;;29.40;46.20;;;;;;5009746;28;20033;-86
2022/05/11 13:01:30;;;;;;;2.75;2.20;;;29.30;46.00;;;;;;4994315;28;20105;-85
2022/05/11 13:03:58;;;;;;;4.57;2.30;;;29.20;46.40;;;;;;4992799;28;20030;-86
2022/05/11 13:06:46;;;;;;;3.83;2.13;;;29.10;46.10;;;;;;5009667;28;20026;-85
2022/05/11 13:09:32;;;;;;;2.92;1.90;;;29.00;46.50;;;;;;4994155;28;20022;-85
2022/05/11 13:11:59;;;;;;;2.08;1.90;;;29.00;45.80;;;;;;4987724;28;20022;-86
2022/05/11 13:14:37;;;;;;;7.70;2.05;;;29.00;45.70;;;;;;4987578;28;20635;-86
2022/05/11 13:17:05;;;;;;;6.05;2.25;;;29.00;44.60;;;;;;4996484;28;20038;-86
2022/05/11 13:19:34;;;;;;;3.10;1.80;;;28.90;45.00;;;;;;4993887;28;20026;-85
2022/05/11 13:22:10;;;;;;;3.53;2.13;;;28.80;44.80;;;;;;4996297;28;20053;-85
2022/05/11 13:24:49;;;;;;;6.97;1.80;;;28.80;44.70;;;;;;4995580;28;20027;-86
2022/05/11 13:27:48;;;;;;;2.05;1.75;;;28.90;44.50;;;;;;5000277;28;20077;-85
2022/05/11 13:30:40;;;;;;;2.03;1.80;;;28.80;44.40;;;;;;4982172;28;20061;-86
2022/05/11 13:33:34;;;;;;;4.82;2.05;;;28.80;44.60;;;;;;4981342;28;20636;-86
2022/05/11 13:36:17;;;;;;;7.30;1.88;;;28.80;44.90;;;;;;4984445;28;20042;-86
2022/05/11 13:38:48;;;;;;;1.52;1.42;;;28.80;44.80;;;;;;4982486;28;20030;-86
2022/05/11 13:41:18;;;;;;;2.90;2.17;;;28.90;44.60;;;;;;4977184;28;20053;-86
2022/05/11 13:43:53;;;;;;;4.10;1.88;;;28.80;44.70;;;;;;5010291;28;20030;-85